createdAt,value
2018-03-02T00:00:14.478Z,33.15
2018-03-02T00:01:14.467Z,33.07
2018-03-02T00:02:14.497Z,33.14
2018-03-02T00:03:14.525Z,33.14
2018-03-02T00:04:14.500Z,33.13
2018-03-02T00:05:14.506Z,33.12
2018-03-02T00:06:14.463Z,33.13
2018-03-02T00:07:14.462Z,33.1
2018-03-02T00:08:14.486Z,33.1
2018-03-02T00:09:14.803Z,33.08
2018-03-02T00:10:14.477Z,33.12
2018-03-02T00:11:14.470Z,33.13
2018-03-02T00:12:14.470Z,33.12
2018-03-02T00:13:14.471Z,33.14
2018-03-02T00:14:14.502Z,33.1
2018-03-02T00:15:14.454Z,33.12
2018-03-02T00:16:14.520Z,33.16
2018-03-02T00:17:14.463Z,33.05
2018-03-02T00:18:14.485Z,33.12
2018-03-02T00:19:14.465Z,33.03
2018-03-02T00:20:14.485Z,33.06
2018-03-02T00:21:14.484Z,33.14
2018-03-02T00:22:14.470Z,33.05
2018-03-02T00:23:14.479Z,33.14
2018-03-02T00:24:14.469Z,33.12
2018-03-02T00:25:14.476Z,33.08
2018-03-02T00:26:14.499Z,33.03
2018-03-02T00:27:14.504Z,33.07
2018-03-02T00:28:14.464Z,33.09
2018-03-02T00:29:14.464Z,33.13
2018-03-02T00:30:14.460Z,33.11
2018-03-02T00:31:14.440Z,33.09
2018-03-02T00:32:14.513Z,33.09
2018-03-02T00:33:14.576Z,33.12
2018-03-02T00:34:14.586Z,33.11
2018-03-02T00:35:14.492Z,33.06
2018-03-02T00:36:14.509Z,33.09
2018-03-02T00:37:14.474Z,33.06
2018-03-02T00:38:14.470Z,33.1
2018-03-02T00:39:14.459Z,33.09
2018-03-02T00:40:14.512Z,33.11
2018-03-02T00:41:14.456Z,33.07
2018-03-02T00:42:14.468Z,33.14
2018-03-02T00:43:14.482Z,33.11
2018-03-02T00:44:14.488Z,33.11
2018-03-02T00:45:14.491Z,33.13
2018-03-02T00:46:14.455Z,33.13
2018-03-02T00:47:14.459Z,33.06
2018-03-02T00:48:14.456Z,33.04
2018-03-02T00:49:14.487Z,33.06
2018-03-02T00:50:14.487Z,33.1
2018-03-02T00:51:14.500Z,33.11
2018-03-02T00:52:14.473Z,33.12
2018-03-02T00:53:14.466Z,33.1
2018-03-02T00:54:14.468Z,33.06
2018-03-02T00:55:14.472Z,33.08
2018-03-02T00:56:14.466Z,33.07
2018-03-02T00:57:14.462Z,33.1
2018-03-02T00:58:14.457Z,33.17
2018-03-02T00:59:14.454Z,33.08
2018-03-02T01:00:14.464Z,33.09
2018-03-02T01:01:14.451Z,33.09
2018-03-02T01:02:14.460Z,33.06
2018-03-02T01:03:14.470Z,33.05
2018-03-02T01:04:14.505Z,33.06
2018-03-02T01:05:14.449Z,33.11
2018-03-02T01:06:14.452Z,33.05
2018-03-02T01:07:14.506Z,33.05
2018-03-02T01:08:14.469Z,33.09
2018-03-02T01:09:14.447Z,33.06
2018-03-02T01:10:14.448Z,33.03
2018-03-02T01:11:14.445Z,32.99
2018-03-02T01:12:14.496Z,33.06
2018-03-02T01:13:14.454Z,32.99
2018-03-02T01:14:14.470Z,33.03
2018-03-02T01:15:14.442Z,33.06
2018-03-02T01:16:14.483Z,33.08
2018-03-02T01:17:14.510Z,33.03
2018-03-02T01:18:14.482Z,33.05
2018-03-02T01:19:14.469Z,33.05
2018-03-02T01:20:14.445Z,33.05
2018-03-02T01:21:14.439Z,33.09
2018-03-02T01:22:14.494Z,33.03
2018-03-02T01:23:14.482Z,33
2018-03-02T01:24:14.475Z,32.97
2018-03-02T01:25:14.447Z,33
2018-03-02T01:26:14.435Z,32.97
2018-03-02T01:27:14.455Z,33
2018-03-02T01:28:14.463Z,32.97
2018-03-02T01:29:14.420Z,32.97
2018-03-02T01:30:14.470Z,32.94
2018-03-02T01:31:14.429Z,33
2018-03-02T01:32:14.413Z,33
2018-03-02T01:33:14.450Z,32.94
2018-03-02T01:34:14.444Z,33.01
2018-03-02T01:35:14.440Z,33.03
2018-03-02T01:36:14.466Z,32.97
2018-03-02T01:37:14.433Z,33.04
2018-03-02T01:38:14.462Z,32.9
2018-03-02T01:39:14.440Z,32.97
2018-03-02T01:40:14.471Z,33
2018-03-02T01:41:14.430Z,33.01
2018-03-02T01:42:14.430Z,32.97
2018-03-02T01:43:14.483Z,33
2018-03-02T01:44:14.438Z,32.91
2018-03-02T01:45:14.411Z,32.91
2018-03-02T01:46:14.442Z,33
2018-03-02T01:47:14.445Z,32.98
2018-03-02T01:48:14.448Z,32.98
2018-03-02T01:49:14.408Z,33.01
2018-03-02T01:50:14.462Z,32.95
2018-03-02T01:51:14.470Z,32.91
2018-03-02T01:52:14.468Z,33
2018-03-02T01:53:14.420Z,33.02
2018-03-02T01:54:14.439Z,32.99
2018-03-02T01:55:14.444Z,32.93
2018-03-02T01:56:14.416Z,32.95
2018-03-02T01:57:14.444Z,32.95
2018-03-02T01:58:14.446Z,32.96
2018-03-02T01:59:14.487Z,32.97
2018-03-02T02:00:14.440Z,32.92
2018-03-02T02:01:14.438Z,32.92
2018-03-02T02:02:14.444Z,32.97
2018-03-02T02:03:14.458Z,32.89
2018-03-02T02:04:14.462Z,32.92
2018-03-02T02:05:14.421Z,32.87
2018-03-02T02:06:14.421Z,33
2018-03-02T02:07:14.449Z,32.97
2018-03-02T02:08:14.428Z,32.9
2018-03-02T02:09:14.436Z,32.9
2018-03-02T02:10:14.425Z,32.89
2018-03-02T02:11:14.502Z,32.96
2018-03-02T02:12:14.433Z,32.93
2018-03-02T02:13:14.442Z,32.9
2018-03-02T02:14:14.480Z,32.99
2018-03-02T02:15:14.450Z,32.96
2018-03-02T02:16:14.453Z,32.96
2018-03-02T02:17:14.433Z,32.97
2018-03-02T02:18:14.454Z,32.96
2018-03-02T02:19:14.470Z,32.91
2018-03-02T02:20:14.452Z,32.94
2018-03-02T02:21:14.423Z,32.94
2018-03-02T02:22:14.442Z,32.93
2018-03-02T02:23:14.463Z,32.95
2018-03-02T02:24:14.405Z,32.9
2018-03-02T02:25:14.477Z,32.9
2018-03-02T02:26:14.444Z,32.97
2018-03-02T02:27:14.445Z,32.94
2018-03-02T02:28:14.430Z,32.9
2018-03-02T02:29:14.456Z,32.91
2018-03-02T02:30:14.467Z,32.93
2018-03-02T02:31:14.474Z,32.91
2018-03-02T02:32:14.466Z,32.91
2018-03-02T02:33:14.499Z,32.91
2018-03-02T02:34:14.583Z,32.88
2018-03-02T02:35:14.552Z,32.88
2018-03-02T02:36:14.467Z,32.91
2018-03-02T02:37:14.434Z,32.88
2018-03-02T02:38:14.502Z,32.85
2018-03-02T02:39:14.817Z,32.92
2018-03-02T02:40:14.423Z,32.88
2018-03-02T02:41:14.461Z,32.9
2018-03-02T02:42:14.429Z,32.86
2018-03-02T02:43:14.432Z,32.94
2018-03-02T02:44:14.473Z,32.88
2018-03-02T02:45:14.408Z,32.86
2018-03-02T02:46:14.473Z,32.86
2018-03-02T02:47:14.415Z,32.92
2018-03-02T02:48:14.438Z,32.88
2018-03-02T02:49:14.465Z,32.91
2018-03-02T02:50:14.487Z,32.92
2018-03-02T02:51:14.434Z,32.89
2018-03-02T02:52:14.418Z,32.86
2018-03-02T02:53:14.413Z,32.85
2018-03-02T02:54:14.461Z,32.81
2018-03-02T02:55:14.453Z,32.81
2018-03-02T02:56:14.431Z,32.92
2018-03-02T02:57:14.451Z,32.86
2018-03-02T02:58:14.449Z,32.86
2018-03-02T02:59:14.449Z,32.83
2018-03-02T03:00:14.470Z,32.83
2018-03-02T03:01:14.418Z,32.85
2018-03-02T03:02:14.427Z,32.78
2018-03-02T03:03:14.441Z,32.83
2018-03-02T03:04:14.668Z,32.82
2018-03-02T03:05:14.404Z,32.82
2018-03-02T03:06:14.432Z,32.87
2018-03-02T03:07:14.405Z,32.87
2018-03-02T03:08:14.423Z,32.84
2018-03-02T03:09:14.432Z,32.83
2018-03-02T03:10:14.421Z,32.86
2018-03-02T03:11:14.414Z,32.85
2018-03-02T03:12:14.468Z,32.81
2018-03-02T03:13:14.410Z,32.86
2018-03-02T03:14:14.392Z,32.87
2018-03-02T03:15:14.407Z,32.86
2018-03-02T03:16:14.448Z,32.92
2018-03-02T03:17:14.441Z,32.86
2018-03-02T03:18:14.399Z,32.86
2018-03-02T03:19:14.393Z,32.81
2018-03-02T03:20:14.446Z,32.83
2018-03-02T03:21:14.426Z,32.85
2018-03-02T03:22:14.445Z,32.86
2018-03-02T03:23:14.389Z,32.85
2018-03-02T03:24:14.427Z,32.87
2018-03-02T03:25:14.409Z,32.86
2018-03-02T03:26:14.406Z,32.84
2018-03-02T03:27:14.438Z,32.81
2018-03-02T03:28:14.414Z,32.89
2018-03-02T03:29:14.414Z,32.8
2018-03-02T03:30:14.436Z,32.81
2018-03-02T03:31:14.438Z,32.78
2018-03-02T03:32:14.406Z,32.92
2018-03-02T03:33:14.416Z,32.84
2018-03-02T03:34:14.400Z,32.81
2018-03-02T03:35:14.398Z,32.85
2018-03-02T03:36:14.434Z,32.71
2018-03-02T03:37:14.398Z,32.85
2018-03-02T03:38:14.409Z,32.82
2018-03-02T03:39:14.406Z,32.8
2018-03-02T03:40:14.431Z,32.82
2018-03-02T03:41:14.393Z,32.73
2018-03-02T03:42:14.398Z,32.72
2018-03-02T03:43:14.393Z,32.81
2018-03-02T03:44:14.405Z,32.75
2018-03-02T03:45:14.403Z,32.75
2018-03-02T03:46:14.394Z,32.74
2018-03-02T03:47:14.395Z,32.71
2018-03-02T03:48:14.403Z,32.81
2018-03-02T03:49:14.417Z,32.75
2018-03-02T03:50:14.419Z,32.82
2018-03-02T03:51:14.860Z,32.74
2018-03-02T03:52:14.421Z,32.74
2018-03-02T03:53:14.391Z,32.74
2018-03-02T03:54:14.388Z,32.75
2018-03-02T03:55:14.456Z,32.72
2018-03-02T03:56:14.390Z,32.78
2018-03-02T03:57:14.424Z,32.68
2018-03-02T03:58:14.404Z,32.81
2018-03-02T03:59:14.390Z,32.74
2018-03-02T04:00:14.406Z,32.72
2018-03-02T04:01:14.407Z,32.72
2018-03-02T04:02:14.393Z,32.64
2018-03-02T04:03:14.398Z,32.69
2018-03-02T04:04:14.392Z,32.73
2018-03-02T04:05:14.421Z,32.72
2018-03-02T04:06:14.390Z,32.69
2018-03-02T04:07:14.400Z,32.73
2018-03-02T04:08:14.388Z,32.68
2018-03-02T04:09:14.409Z,32.75
2018-03-02T04:10:14.422Z,32.77
2018-03-02T04:11:14.382Z,32.73
2018-03-02T04:12:14.404Z,32.72
2018-03-02T04:13:14.371Z,32.79
2018-03-02T04:14:14.405Z,32.71
2018-03-02T04:15:14.401Z,32.77
2018-03-02T04:16:14.408Z,32.69
2018-03-02T04:17:14.426Z,32.7
2018-03-02T04:18:14.379Z,32.69
2018-03-02T04:19:14.410Z,32.75
2018-03-02T04:20:14.392Z,32.7
2018-03-02T04:21:14.382Z,32.72
2018-03-02T04:22:14.371Z,32.71
2018-03-02T04:23:14.405Z,32.79
2018-03-02T04:24:14.382Z,32.74
2018-03-02T04:25:14.390Z,32.74
2018-03-02T04:26:14.378Z,32.69
2018-03-02T04:27:14.404Z,32.7
2018-03-02T04:28:14.379Z,32.7
2018-03-02T04:29:14.404Z,32.73
2018-03-02T04:30:14.387Z,32.69
2018-03-02T04:31:14.379Z,32.73
2018-03-02T04:32:14.386Z,32.71
2018-03-02T04:33:14.379Z,32.71
2018-03-02T04:34:14.369Z,32.73
2018-03-02T04:35:14.502Z,32.73
2018-03-02T04:36:14.481Z,32.74
2018-03-02T04:37:14.382Z,32.67
2018-03-02T04:38:14.411Z,32.7
2018-03-02T04:39:14.364Z,32.59
2018-03-02T04:40:14.391Z,32.6
2018-03-02T04:41:14.386Z,32.6
2018-03-02T04:42:14.361Z,32.56
2018-03-02T04:43:14.437Z,32.63
2018-03-02T04:44:14.390Z,32.6
2018-03-02T04:45:14.364Z,32.57
2018-03-02T04:46:14.399Z,32.56
2018-03-02T04:47:14.386Z,32.63
2018-03-02T04:48:14.378Z,32.6
2018-03-02T04:49:14.361Z,32.57
2018-03-02T04:50:14.380Z,32.67
2018-03-02T04:51:14.377Z,32.67
2018-03-02T04:52:14.885Z,32.65
2018-03-02T04:53:14.384Z,32.67
2018-03-02T04:54:14.373Z,32.68
2018-03-02T04:55:14.425Z,32.75
2018-03-02T04:56:14.370Z,32.78
2018-03-02T04:57:14.388Z,32.74
2018-03-02T04:58:14.368Z,32.84
2018-03-02T04:59:14.356Z,32.74
2018-03-02T05:00:14.352Z,32.79
2018-03-02T05:01:14.367Z,32.82
2018-03-02T05:02:14.408Z,32.81
2018-03-02T05:03:14.390Z,32.75
2018-03-02T05:04:14.366Z,32.87
2018-03-02T05:05:14.374Z,32.89
2018-03-02T05:06:14.383Z,32.85
2018-03-02T05:07:14.389Z,32.87
2018-03-02T05:08:14.395Z,32.88
2018-03-02T05:09:14.398Z,32.94
2018-03-02T05:10:14.384Z,32.94
2018-03-02T05:11:14.355Z,33
2018-03-02T05:12:14.361Z,33.07
2018-03-02T05:13:14.401Z,33.06
2018-03-02T05:14:14.342Z,33.16
2018-03-02T05:15:14.372Z,33.12
2018-03-02T05:16:14.347Z,33.23
2018-03-02T05:17:14.380Z,33.07
2018-03-02T05:18:14.360Z,33.21
2018-03-02T05:19:14.396Z,33.27
2018-03-02T05:20:14.368Z,33.2
2018-03-02T05:21:14.354Z,33.3
2018-03-02T05:22:14.377Z,33.28
2018-03-02T05:23:14.372Z,33.45
2018-03-02T05:24:14.386Z,33.3
2018-03-02T05:25:14.364Z,33.59
2018-03-02T05:26:14.351Z,33.6
2018-03-02T05:27:14.422Z,33.57
2018-03-02T05:28:14.357Z,33.65
2018-03-02T05:29:14.348Z,33.64
2018-03-02T05:30:14.359Z,33.68
2018-03-02T05:31:14.395Z,33.69
2018-03-02T05:32:14.365Z,33.69
2018-03-02T05:33:14.349Z,33.76
2018-03-02T05:34:14.359Z,33.64
2018-03-02T05:35:14.374Z,33.83
2018-03-02T05:36:14.381Z,33.81
2018-03-02T05:37:14.348Z,33.86
2018-03-02T05:38:14.356Z,33.78
2018-03-02T05:39:14.414Z,33.76
2018-03-02T05:40:14.351Z,33.7
2018-03-02T05:41:14.344Z,33.7
2018-03-02T05:42:14.376Z,33.65
2018-03-02T05:43:14.346Z,33.65
2018-03-02T05:44:14.334Z,33.59
2018-03-02T05:45:14.420Z,33.57
2018-03-02T05:46:14.351Z,33.59
2018-03-02T05:47:14.386Z,33.62
2018-03-02T05:48:14.362Z,33.54
2018-03-02T05:49:14.370Z,33.57
2018-03-02T05:50:14.427Z,33.6
2018-03-02T05:51:14.355Z,33.55
2018-03-02T05:52:14.362Z,33.51
2018-03-02T05:53:14.375Z,33.48
2018-03-02T05:54:14.352Z,33.52
2018-03-02T05:55:14.351Z,33.52
2018-03-02T05:56:14.366Z,33.53
2018-03-02T05:57:14.361Z,33.46
2018-03-02T05:58:14.341Z,33.52
2018-03-02T05:59:14.341Z,33.5
2018-03-02T06:00:14.341Z,33.53
2018-03-02T06:01:14.345Z,33.51
2018-03-02T06:02:14.339Z,33.51
2018-03-02T06:03:14.348Z,33.47
2018-03-02T06:04:14.340Z,33.5
2018-03-02T06:05:14.387Z,33.5
2018-03-02T06:06:14.376Z,33.51
2018-03-02T06:07:14.348Z,33.51
2018-03-02T06:08:14.331Z,33.53
2018-03-02T06:09:14.332Z,33.56
2018-03-02T06:10:14.349Z,33.53
2018-03-02T06:11:14.344Z,33.56
2018-03-02T06:12:14.344Z,33.55
2018-03-02T06:13:14.352Z,33.52
2018-03-02T06:14:14.374Z,33.46
2018-03-02T06:15:14.339Z,33.55
2018-03-02T06:16:14.346Z,33.52
2018-03-02T06:17:14.365Z,33.48
2018-03-02T06:18:14.328Z,33.54
2018-03-02T06:19:14.327Z,33.49
2018-03-02T06:20:14.334Z,33.55
2018-03-02T06:21:14.366Z,33.52
2018-03-02T06:22:14.346Z,33.43
2018-03-02T06:23:14.341Z,33.48
2018-03-02T06:24:14.345Z,33.43
2018-03-02T06:25:14.334Z,33.47
2018-03-02T06:26:14.339Z,33.54
2018-03-02T06:27:14.329Z,33.46
2018-03-02T06:28:14.363Z,33.43
2018-03-02T06:29:14.336Z,33.49
2018-03-02T06:30:14.359Z,33.39
2018-03-02T06:31:14.349Z,33.47
2018-03-02T06:32:14.351Z,33.5
2018-03-02T06:33:14.338Z,33.46
2018-03-02T06:34:14.353Z,33.46
2018-03-02T06:35:14.323Z,33.4
2018-03-02T06:36:14.438Z,33.5
2018-03-02T06:37:14.429Z,33.5
2018-03-02T06:38:14.320Z,33.43
2018-03-02T06:39:14.344Z,33.42
2018-03-02T06:40:14.791Z,33.53
2018-03-02T06:41:14.332Z,33.47
2018-03-02T06:42:14.391Z,33.5
2018-03-02T06:43:14.333Z,33.52
2018-03-02T06:44:14.309Z,33.54
2018-03-02T06:45:14.337Z,33.54
2018-03-02T06:46:14.332Z,33.54
2018-03-02T06:47:14.932Z,33.56
2018-03-02T06:48:14.355Z,33.51
2018-03-02T06:49:14.361Z,33.35
2018-03-02T06:50:14.332Z,33.51
2018-03-02T06:51:14.388Z,33.41
2018-03-02T06:52:14.376Z,33.5
2018-03-02T06:53:14.336Z,33.4
2018-03-02T06:54:14.327Z,33.41
2018-03-02T06:55:14.337Z,33.36
2018-03-02T06:56:14.309Z,33.51
2018-03-02T06:57:14.363Z,33.43
2018-03-02T06:58:14.328Z,33.38
2018-03-02T06:59:14.321Z,33.35
2018-03-02T07:00:14.315Z,33.48
2018-03-02T07:01:14.324Z,33.55
2018-03-02T07:02:14.351Z,33.34
2018-03-02T07:03:14.317Z,33.42
2018-03-02T07:04:14.663Z,33.28
2018-03-02T07:05:14.314Z,33.41
2018-03-02T07:06:14.373Z,33.46
2018-03-02T07:07:14.351Z,33.33
2018-03-02T07:08:14.311Z,33.38
2018-03-02T07:09:14.344Z,33.35
2018-03-02T07:10:14.329Z,33.31
2018-03-02T07:11:14.327Z,33.36
2018-03-02T07:12:14.315Z,33.35
2018-03-02T07:13:14.329Z,33.38
2018-03-02T07:14:14.325Z,33.36
2018-03-02T07:15:14.316Z,33.32
2018-03-02T07:16:14.378Z,33.3
2018-03-02T07:17:14.712Z,33.34
2018-03-02T07:18:14.306Z,33.36
2018-03-02T07:19:14.299Z,33.35
2018-03-02T07:20:14.347Z,33.41
2018-03-02T07:21:14.303Z,33.29
2018-03-02T07:22:14.340Z,33.34
2018-03-02T07:23:14.313Z,33.3
2018-03-02T07:24:14.304Z,33.37
2018-03-02T07:25:14.328Z,33.21
2018-03-02T07:26:14.317Z,33.35
2018-03-02T07:27:14.311Z,33.34
2018-03-02T07:28:14.310Z,33.36
2018-03-02T07:29:14.332Z,33.25
2018-03-02T07:30:14.316Z,33.51
2018-03-02T07:31:14.408Z,33.39
2018-03-02T07:32:14.300Z,33.43
2018-03-02T07:33:14.301Z,33.13
2018-03-02T07:34:14.335Z,33.22
2018-03-02T07:35:14.311Z,33.11
2018-03-02T07:36:14.310Z,33.23
2018-03-02T07:37:14.311Z,33.23
2018-03-02T07:38:14.329Z,33.27
2018-03-02T07:39:14.314Z,33.2
2018-03-02T07:40:14.324Z,33.2
2018-03-02T07:41:14.324Z,33.19
2018-03-02T07:42:14.331Z,33.16
2018-03-02T07:43:14.303Z,33.19
2018-03-02T07:44:14.636Z,33.27
2018-03-02T07:45:14.318Z,33.37
2018-03-02T07:46:14.309Z,33.23
2018-03-02T07:47:14.304Z,33.28
2018-03-02T07:48:14.300Z,33.35
2018-03-02T07:49:14.372Z,33.33
2018-03-02T07:50:14.311Z,33.27
2018-03-02T07:51:14.336Z,33.28
2018-03-02T07:52:14.372Z,33.17
2018-03-02T07:53:14.306Z,33.22
2018-03-02T07:54:14.317Z,33.27
2018-03-02T07:55:14.344Z,33.11
2018-03-02T07:56:14.290Z,33.25
2018-03-02T07:57:14.314Z,33.37
2018-03-02T07:58:14.311Z,33.13
2018-03-02T07:59:14.304Z,33.24
2018-03-02T08:00:14.298Z,33.31
2018-03-02T08:01:14.335Z,33.25
2018-03-02T08:02:14.326Z,33.35
2018-03-02T08:03:14.316Z,33.15
2018-03-02T08:04:14.367Z,33.24
2018-03-02T08:05:14.311Z,33.14
2018-03-02T08:06:14.323Z,33.08
2018-03-02T08:07:14.332Z,33.2
2018-03-02T08:08:14.318Z,33.14
2018-03-02T08:09:14.336Z,33.13
2018-03-02T08:10:14.360Z,33.29
2018-03-02T08:11:14.350Z,33.24
2018-03-02T08:12:14.331Z,33.2
2018-03-02T08:13:14.331Z,33.2
2018-03-02T08:14:14.310Z,33
2018-03-02T08:15:14.328Z,33.08
2018-03-02T08:16:14.883Z,33.16
2018-03-02T08:17:14.348Z,33.12
2018-03-02T08:18:14.338Z,33.12
2018-03-02T08:19:14.325Z,33.31
2018-03-02T08:20:14.317Z,33
2018-03-02T08:21:15.537Z,33.22
2018-03-02T08:22:14.346Z,33.15
2018-03-02T08:23:14.324Z,33.18
2018-03-02T08:24:17.704Z,33.19
2018-03-02T08:25:14.335Z,33.11
2018-03-02T08:26:14.317Z,33.12
2018-03-02T08:27:14.344Z,33.05
2018-03-02T08:28:17.700Z,33.12
2018-03-02T08:29:14.343Z,33.04
2018-03-02T08:30:17.676Z,33.09
2018-03-02T08:31:14.380Z,33.15
2018-03-02T08:32:14.341Z,33.09
2018-03-02T08:33:14.335Z,33.04
2018-03-02T08:34:14.322Z,33.08
2018-03-02T08:35:14.323Z,33.09
2018-03-02T08:36:14.355Z,32.91
2018-03-02T08:37:14.413Z,33.01
2018-03-02T08:38:14.408Z,32.79
2018-03-02T08:39:15.286Z,33.14
2018-03-02T08:40:17.270Z,33.07
2018-03-02T08:41:14.994Z,33.01
2018-03-02T08:42:14.302Z,32.99
2018-03-02T08:43:14.291Z,33.03
2018-03-02T08:44:14.301Z,33.01
2018-03-02T08:45:14.294Z,32.99
2018-03-02T08:46:14.313Z,33.05
2018-03-02T08:47:14.275Z,33.06
2018-03-02T08:48:14.289Z,33.03
2018-03-02T08:49:14.269Z,33.13
2018-03-02T08:50:14.297Z,33.15
2018-03-02T08:51:14.331Z,33.13
2018-03-02T08:52:14.261Z,33.02
2018-03-02T08:53:14.270Z,33.06
2018-03-02T08:54:14.287Z,32.98
2018-03-02T08:55:14.281Z,32.99
2018-03-02T08:56:14.312Z,32.96
2018-03-02T08:57:14.283Z,32.98
2018-03-02T08:58:14.273Z,32.94
2018-03-02T08:59:14.281Z,32.98
2018-03-02T09:00:14.298Z,32.88
2018-03-02T09:01:14.291Z,33.01
2018-03-02T09:02:14.279Z,33.05
2018-03-02T09:03:14.280Z,32.98
2018-03-02T09:04:14.288Z,32.98
2018-03-02T09:05:14.289Z,32.92
2018-03-02T09:06:14.338Z,32.97
2018-03-02T09:07:14.261Z,33.07
2018-03-02T09:08:14.292Z,32.98
2018-03-02T09:09:14.265Z,32.94
2018-03-02T09:10:14.305Z,33.03
2018-03-02T09:11:14.279Z,32.94
2018-03-02T09:12:14.280Z,32.94
2018-03-02T09:13:14.289Z,32.93
2018-03-02T09:14:14.263Z,33.02
2018-03-02T09:15:14.271Z,32.98
2018-03-02T09:16:14.309Z,32.81
2018-03-02T09:17:14.305Z,32.97
2018-03-02T09:18:14.452Z,32.96
2018-03-02T09:19:14.341Z,32.83
2018-03-02T09:20:14.311Z,32.97
2018-03-02T09:21:14.286Z,32.9
2018-03-02T09:22:14.305Z,32.74
2018-03-02T09:23:14.266Z,33.04
2018-03-02T09:24:14.283Z,32.87
2018-03-02T09:25:14.281Z,32.97
2018-03-02T09:26:14.295Z,32.93
2018-03-02T09:27:14.283Z,32.89
2018-03-02T09:28:14.262Z,32.96
2018-03-02T09:29:14.250Z,32.93
2018-03-02T09:30:14.706Z,32.83
2018-03-02T09:31:14.280Z,32.92
2018-03-02T09:32:14.279Z,32.8
2018-03-02T09:33:14.310Z,32.76
2018-03-02T09:34:14.265Z,32.89
2018-03-02T09:35:14.281Z,32.85
2018-03-02T09:36:14.278Z,32.93
2018-03-02T09:37:14.282Z,32.88
2018-03-02T09:38:14.277Z,32.85
2018-03-02T09:39:14.258Z,32.92
2018-03-02T09:40:14.277Z,32.88
2018-03-02T09:41:14.251Z,32.81
2018-03-02T09:42:14.336Z,32.85
2018-03-02T09:43:14.282Z,32.76
2018-03-02T09:44:14.254Z,32.87
2018-03-02T09:45:14.259Z,32.83
2018-03-02T09:46:14.259Z,32.88
2018-03-02T09:47:14.262Z,32.86
2018-03-02T09:48:14.442Z,32.88
2018-03-02T09:49:14.249Z,32.83
2018-03-02T09:50:14.258Z,32.88
2018-03-02T09:51:14.288Z,32.9
2018-03-02T09:52:14.277Z,32.83
2018-03-02T09:53:14.276Z,32.94
2018-03-02T09:54:14.255Z,32.75
2018-03-02T09:55:14.287Z,32.78
2018-03-02T09:56:14.265Z,32.85
2018-03-02T09:57:14.305Z,32.91
2018-03-02T09:58:14.285Z,32.81
2018-03-02T09:59:14.256Z,32.66
2018-03-02T10:00:14.263Z,32.82
2018-03-02T10:01:14.263Z,32.78
2018-03-02T10:02:14.323Z,32.78
2018-03-02T10:03:14.645Z,32.74
2018-03-02T10:04:14.268Z,32.72
2018-03-02T10:05:14.259Z,32.69
2018-03-02T10:06:14.249Z,32.74
2018-03-02T10:07:14.256Z,32.64
2018-03-02T10:08:14.297Z,32.77
2018-03-02T10:09:14.510Z,32.72
2018-03-02T10:10:14.266Z,32.75
2018-03-02T10:11:14.247Z,32.63
2018-03-02T10:12:14.253Z,32.68
2018-03-02T10:13:14.258Z,32.67
2018-03-02T10:14:14.266Z,32.7
2018-03-02T10:15:14.253Z,32.57
2018-03-02T10:16:14.264Z,32.74
2018-03-02T10:17:14.253Z,32.64
2018-03-02T10:18:14.297Z,32.81
2018-03-02T10:19:14.268Z,32.67
2018-03-02T10:20:14.245Z,32.74
2018-03-02T10:21:14.273Z,32.75
2018-03-02T10:22:14.318Z,32.61
2018-03-02T10:23:14.271Z,32.86
2018-03-02T10:24:14.264Z,32.74
2018-03-02T10:25:14.248Z,32.74
2018-03-02T10:26:14.247Z,32.79
2018-03-02T10:27:14.280Z,32.7
2018-03-02T10:28:14.287Z,32.68
2018-03-02T10:29:14.248Z,32.67
2018-03-02T10:30:14.430Z,32.86
2018-03-02T10:31:14.261Z,32.71
2018-03-02T10:32:14.276Z,32.74
2018-03-02T10:33:14.254Z,32.8
2018-03-02T10:34:14.252Z,32.73
2018-03-02T10:35:14.227Z,32.73
2018-03-02T10:36:14.276Z,32.77
2018-03-02T10:37:14.246Z,32.62
2018-03-02T10:38:14.384Z,32.66
2018-03-02T10:39:14.352Z,32.72
2018-03-02T10:40:14.240Z,32.83
2018-03-02T10:41:14.254Z,32.67
2018-03-02T10:42:14.243Z,32.77
2018-03-02T10:43:14.279Z,32.9
2018-03-02T10:44:14.256Z,32.73
2018-03-02T10:45:14.274Z,32.63
2018-03-02T10:46:14.241Z,32.7
2018-03-02T10:47:14.250Z,32.65
2018-03-02T10:48:14.258Z,32.77
2018-03-02T10:49:14.636Z,32.73
2018-03-02T10:50:14.250Z,32.74
2018-03-02T10:51:14.253Z,32.72
2018-03-02T10:52:14.256Z,32.82
2018-03-02T10:53:14.225Z,32.8
2018-03-02T10:54:14.262Z,32.76
2018-03-02T10:55:14.230Z,32.69
2018-03-02T10:56:14.545Z,32.82
2018-03-02T10:57:14.240Z,32.87
2018-03-02T10:58:14.251Z,32.7
2018-03-02T10:59:14.266Z,32.84
2018-03-02T11:00:14.240Z,32.63
2018-03-02T11:01:14.249Z,32.66
2018-03-02T11:02:14.233Z,32.79
2018-03-02T11:03:14.238Z,32.75
2018-03-02T11:04:14.229Z,32.76
2018-03-02T11:05:14.236Z,32.84
2018-03-02T11:06:14.259Z,32.82
2018-03-02T11:07:14.244Z,32.72
2018-03-02T11:08:14.238Z,32.76
2018-03-02T11:09:14.239Z,32.68
2018-03-02T11:10:14.239Z,32.63
2018-03-02T11:11:14.245Z,32.78
2018-03-02T11:12:14.241Z,32.78
2018-03-02T11:13:14.277Z,32.82
2018-03-02T11:14:14.259Z,32.74
2018-03-02T11:15:14.297Z,32.78
2018-03-02T11:16:14.252Z,32.76
2018-03-02T11:17:14.261Z,32.84
2018-03-02T11:18:14.243Z,32.79
2018-03-02T11:19:14.252Z,32.76
2018-03-02T11:20:14.235Z,32.76
2018-03-02T11:21:14.239Z,32.79
2018-03-02T11:22:14.230Z,32.69
2018-03-02T11:23:14.233Z,32.78
2018-03-02T11:24:14.220Z,32.74
2018-03-02T11:25:14.230Z,32.68
2018-03-02T11:26:14.221Z,32.81
2018-03-02T11:27:14.227Z,32.84
2018-03-02T11:28:14.255Z,32.72
2018-03-02T11:29:14.215Z,32.84
2018-03-02T11:30:14.218Z,32.76
2018-03-02T11:31:14.237Z,32.75
2018-03-02T11:32:14.252Z,32.72
2018-03-02T11:33:14.252Z,32.7
2018-03-02T11:34:14.217Z,32.77
2018-03-02T11:35:14.226Z,32.77
2018-03-02T11:36:14.216Z,32.71
2018-03-02T11:37:14.239Z,32.81
2018-03-02T11:38:14.214Z,32.81
2018-03-02T11:39:14.242Z,32.79
2018-03-02T11:40:14.237Z,32.73
2018-03-02T11:41:14.226Z,32.67
2018-03-02T11:42:14.233Z,32.94
2018-03-02T11:43:14.244Z,32.93
2018-03-02T11:44:14.256Z,32.78
2018-03-02T11:45:16.693Z,32.78
2018-03-02T11:46:16.694Z,32.81
2018-03-02T11:47:16.444Z,32.88
2018-03-02T11:48:14.275Z,32.86
2018-03-02T11:49:14.254Z,32.77
2018-03-02T11:50:16.713Z,32.84
2018-03-02T11:51:16.592Z,32.88
2018-03-02T11:52:16.460Z,32.87
2018-03-02T11:53:16.705Z,32.71
2018-03-02T11:54:17.094Z,32.79
2018-03-02T11:55:14.243Z,32.8
2018-03-02T11:56:16.594Z,32.77
2018-03-02T11:57:16.882Z,32.86
2018-03-02T11:58:14.252Z,32.93
2018-03-02T11:59:14.244Z,32.7
2018-03-02T12:00:16.452Z,32.71
2018-03-02T12:01:14.262Z,32.98
2018-03-02T12:02:16.208Z,32.71
2018-03-02T12:03:14.260Z,32.86
2018-03-02T12:04:14.269Z,32.94
2018-03-02T12:05:17.122Z,32.86
2018-03-02T12:06:14.273Z,32.83
2018-03-02T12:07:14.243Z,32.83
2018-03-02T12:08:14.246Z,32.83
2018-03-02T12:09:14.420Z,32.87
2018-03-02T12:10:16.360Z,32.74
2018-03-02T12:11:14.248Z,32.83
2018-03-02T12:12:14.265Z,32.83
2018-03-02T12:13:14.255Z,32.85
2018-03-02T12:14:14.247Z,32.8
2018-03-02T12:15:14.270Z,32.77
2018-03-02T12:16:14.293Z,32.92
2018-03-02T12:17:14.263Z,32.83
2018-03-02T12:18:14.886Z,32.89
2018-03-02T12:19:14.253Z,32.95
2018-03-02T12:20:14.905Z,32.9
2018-03-02T12:21:14.240Z,32.86
2018-03-02T12:22:14.263Z,32.96
2018-03-02T12:23:14.295Z,32.85
2018-03-02T12:24:14.813Z,32.9
2018-03-02T12:25:16.340Z,32.85
2018-03-02T12:26:14.284Z,32.9
2018-03-02T12:27:14.250Z,32.92
2018-03-02T12:28:14.226Z,32.78
2018-03-02T12:29:14.223Z,32.93
2018-03-02T12:30:14.823Z,32.8
2018-03-02T12:31:14.507Z,32.88
2018-03-02T12:32:14.228Z,32.93
2018-03-02T12:33:14.254Z,32.88
2018-03-02T12:34:14.843Z,32.78
2018-03-02T12:35:14.266Z,32.93
2018-03-02T12:36:14.854Z,32.97
2018-03-02T12:37:14.273Z,32.88
2018-03-02T12:38:14.270Z,32.85
2018-03-02T12:39:14.334Z,32.88
2018-03-02T12:40:14.355Z,32.93
2018-03-02T12:41:14.237Z,32.89
2018-03-02T12:42:14.260Z,32.9
2018-03-02T12:43:14.567Z,32.89
2018-03-02T12:44:14.225Z,32.9
2018-03-02T12:45:14.276Z,32.9
2018-03-02T12:46:14.228Z,32.93
2018-03-02T12:47:14.202Z,32.88
2018-03-02T12:48:14.231Z,32.88
2018-03-02T12:49:15.107Z,32.91
2018-03-02T12:50:14.207Z,32.91
2018-03-02T12:51:14.206Z,32.95
2018-03-02T12:52:15.073Z,32.86
2018-03-02T12:53:14.236Z,32.89
2018-03-02T12:54:14.211Z,32.93
2018-03-02T12:55:14.729Z,32.91
2018-03-02T12:56:14.213Z,32.95